Time;durP1;ratioP1;P1;durP2;ratioP2;P2;SDS_P1;SDS_P2;PMS_P1;PMS_P2;Temp;Humidity;BMP_temperature;BMP_pressure;BME280_temperature;BME280_humidity;BME280_pressure;Samples;Min_cycle;Max_cycle;Signal;HPM_P1;HPM_P2
2023/09/17 00:01:23;;;;;;;4.68;4.20;;;15.20;99.90;;;;;;5044467;28;20063;-39
2023/09/17 00:03:50;;;;;;;5.53;4.90;;;15.10;99.90;;;;;;5052049;28;20040;-39
2023/09/17 00:06:15;;;;;;;5.13;4.45;;;15.00;99.90;;;;;;5048574;28;20190;-38
2023/09/17 00:08:41;;;;;;;5.00;4.50;;;15.10;99.90;;;;;;5050318;28;20474;-36
2023/09/17 00:11:07;;;;;;;4.80;4.32;;;15.10;99.90;;;;;;5045018;28;20033;-37
2023/09/17 00:13:32;;;;;;;6.97;4.57;;;15.10;99.90;;;;;;5050972;28;20142;-40
2023/09/17 00:15:59;;;;;;;4.88;4.38;;;15.10;99.90;;;;;;5046516;28;20108;-39
2023/09/17 00:18:25;;;;;;;5.13;4.63;;;15.00;99.90;;;;;;5052949;28;20029;-38
2023/09/17 00:20:51;;;;;;;4.82;4.35;;;15.10;99.90;;;;;;5052348;28;20036;-37
2023/09/17 00:23:17;;;;;;;6.55;4.50;;;15.10;99.90;;;;;;5048909;28;20060;-37
2023/09/17 00:25:42;;;;;;;5.70;4.57;;;15.20;99.90;;;;;;5047661;28;20094;-36
2023/09/17 00:28:09;;;;;;;6.13;4.70;;;15.20;99.90;;;;;;5050189;28;20045;-34
2023/09/17 00:30:34;;;;;;;6.60;5.35;;;15.30;99.90;;;;;;5048470;28;20032;-34
2023/09/17 00:33:00;;;;;;;8.15;4.97;;;15.30;99.90;;;;;;5045202;28;20032;-32
2023/09/17 00:35:25;;;;;;;4.45;4.05;;;15.30;99.90;;;;;;5046085;28;20029;-35
2023/09/17 00:37:51;;;;;;;5.65;4.22;;;15.20;99.90;;;;;;5047856;28;20024;-32
2023/09/17 00:40:17;;;;;;;5.05;4.55;;;15.20;99.90;;;;;;5049742;28;20540;-32
2023/09/17 00:42:43;;;;;;;4.70;4.20;;;15.10;99.90;;;;;;5048325;28;20044;-37
2023/09/17 00:45:10;;;;;;;4.60;4.13;;;15.10;99.90;;;;;;5048628;28;20049;-34
2023/09/17 00:47:37;;;;;;;4.93;4.43;;;15.20;99.90;;;;;;5047401;28;20067;-33
2023/09/17 00:50:03;;;;;;;5.43;4.85;;;15.00;99.90;;;;;;5051011;28;20723;-32
2023/09/17 00:52:29;;;;;;;7.78;4.65;;;14.80;99.90;;;;;;5048267;28;20109;-32
2023/09/17 00:54:56;;;;;;;4.82;4.43;;;14.80;99.90;;;;;;5047846;28;20772;-34
2023/09/17 00:57:22;;;;;;;5.80;4.43;;;14.80;99.90;;;;;;5048016;28;20029;-32
2023/09/17 00:59:48;;;;;;;4.65;4.20;;;14.80;99.90;;;;;;5049913;28;20047;-36
2023/09/17 01:02:18;;;;;;;5.45;4.40;;;14.90;99.90;;;;;;5042751;28;20115;-33
2023/09/17 01:04:49;;;;;;;6.18;4.85;;;14.90;99.90;;;;;;5043925;28;20497;-35
2023/09/17 01:07:18;;;;;;;5.35;4.43;;;14.80;99.90;;;;;;5047983;28;20033;-32
2023/09/17 01:09:44;;;;;;;5.25;4.30;;;14.90;99.90;;;;;;5046006;28;20592;-34
2023/09/17 01:12:11;;;;;;;5.50;4.32;;;14.90;99.90;;;;;;5042041;28;20040;-33
2023/09/17 01:14:37;;;;;;;6.18;4.35;;;15.00;99.90;;;;;;5039742;28;20033;-35
2023/09/17 01:17:08;;;;;;;7.03;5.15;;;15.00;99.90;;;;;;5044215;28;20032;-34
2023/09/17 01:19:34;;;;;;;5.78;5.20;;;14.90;99.90;;;;;;5051186;28;20029;-33
2023/09/17 01:22:13;;;;;;;6.35;4.40;;;14.80;99.90;;;;;;5044257;28;20718;-33
2023/09/17 01:24:53;;;;;;;6.82;5.20;;;14.80;99.90;;;;;;5044290;28;20025;-33
2023/09/17 01:27:20;;;;;;;5.88;5.28;;;14.80;99.90;;;;;;5040973;28;20574;-33
2023/09/17 01:29:49;;;;;;;6.05;4.82;;;14.90;99.90;;;;;;5048262;28;20459;-35
2023/09/17 01:32:17;;;;;;;6.82;5.00;;;14.90;99.90;;;;;;5040335;28;20090;-36
2023/09/17 01:34:45;;;;;;;5.90;5.03;;;14.90;99.90;;;;;;5043384;28;20032;-34
2023/09/17 01:37:19;;;;;;;5.85;4.75;;;14.90;99.90;;;;;;5044462;28;20571;-33
2023/09/17 01:39:54;;;;;;;7.82;4.90;;;14.90;99.90;;;;;;5044871;28;20035;-33
2023/09/17 01:42:22;;;;;;;6.50;4.82;;;14.90;99.90;;;;;;5040376;28;20040;-33
2023/09/17 01:44:48;;;;;;;5.83;5.10;;;14.90;99.90;;;;;;5048206;28;20135;-36
2023/09/17 01:47:16;;;;;;;6.35;4.72;;;14.90;99.90;;;;;;5047706;28;20119;-33
2023/09/17 01:49:42;;;;;;;5.63;4.88;;;14.60;99.90;;;;;;5048079;28;20350;-36
2023/09/17 01:52:09;;;;;;;5.57;4.68;;;14.50;99.90;;;;;;5045719;28;20390;-34
2023/09/17 01:54:35;;;;;;;6.03;4.25;;;14.60;99.90;;;;;;5045309;28;20506;-33
2023/09/17 01:57:01;;;;;;;6.53;5.55;;;14.60;99.90;;;;;;5044602;28;20159;-38
2023/09/17 01:59:26;;;;;;;6.82;5.00;;;14.50;99.90;;;;;;5047275;28;20658;-32
2023/09/17 02:01:52;;;;;;;5.20;4.70;;;14.50;99.90;;;;;;5046538;28;20063;-34
2023/09/17 02:04:17;;;;;;;5.05;4.30;;;14.50;99.90;;;;;;5051424;28;20444;-33
2023/09/17 02:06:43;;;;;;;6.35;4.38;;;14.40;99.90;;;;;;5042341;28;20040;-35
2023/09/17 02:09:08;;;;;;;3.88;3.55;;;14.40;99.90;;;;;;5048421;28;20036;-33
2023/09/17 02:11:35;;;;;;;4.25;3.70;;;14.40;99.90;;;;;;5046030;28;20032;-33
2023/09/17 02:14:01;;;;;;;3.83;2.85;;;14.40;99.90;;;;;;5047170;28;20025;-39
2023/09/17 02:16:27;;;;;;;3.47;3.17;;;14.50;99.90;;;;;;5048487;28;20029;-40
2023/09/17 02:18:52;;;;;;;3.67;3.38;;;14.50;99.90;;;;;;5045039;28;20040;-40
2023/09/17 02:21:18;;;;;;;3.70;3.40;;;14.60;99.90;;;;;;5044475;28;20406;-40
2023/09/17 02:23:44;;;;;;;4.35;3.63;;;14.60;99.90;;;;;;5047194;28;20037;-38
2023/09/17 02:26:10;;;;;;;5.25;4.07;;;14.60;99.90;;;;;;5047742;28;20082;-38
2023/09/17 02:28:35;;;;;;;7.32;3.90;;;14.60;99.90;;;;;;5042825;28;20029;-38
2023/09/17 02:31:02;;;;;;;6.25;5.03;;;14.60;99.90;;;;;;5041608;28;20041;-37
2023/09/17 02:33:30;;;;;;;5.05;4.35;;;14.60;99.90;;;;;;5047455;28;20440;-40
2023/09/17 02:35:56;;;;;;;;;;;14.60;99.90;;;;;;5041657;28;20017;-36
2023/09/17 02:38:22;;;;;;;4.15;3.80;;;14.60;99.90;;;;;;5042391;28;19915;-39
2023/09/17 02:40:48;;;;;;;5.65;4.25;;;14.60;99.90;;;;;;5048395;28;20036;-38
2023/09/17 02:43:13;;;;;;;4.43;4.00;;;14.50;99.90;;;;;;5046587;28;20032;-35
2023/09/17 02:45:39;;;;;;;5.03;3.50;;;14.40;99.90;;;;;;5043894;28;20037;-35
2023/09/17 02:48:05;;;;;;;5.47;4.00;;;14.40;99.90;;;;;;5048284;28;20539;-34
2023/09/17 02:50:30;;;;;;;4.30;3.65;;;14.30;99.90;;;;;;5042757;28;20095;-33
2023/09/17 02:52:56;;;;;;;4.80;4.13;;;14.30;99.90;;;;;;5042766;28;20037;-37
2023/09/17 02:55:22;;;;;;;4.72;3.72;;;14.30;99.90;;;;;;5045477;28;20044;-33
2023/09/17 02:57:49;;;;;;;4.97;3.88;;;14.20;99.90;;;;;;5039546;28;20033;-33
2023/09/17 03:00:17;;;;;;;5.00;3.97;;;14.10;99.90;;;;;;5037215;28;20090;-33
2023/09/17 03:02:47;;;;;;;5.23;3.67;;;14.20;99.90;;;;;;5049694;28;20940;-33
2023/09/17 03:05:14;;;;;;;3.50;3.20;;;14.10;99.90;;;;;;5042989;28;20627;-35
2023/09/17 03:07:40;;;;;;;4.35;3.60;;;14.00;99.90;;;;;;5043430;28;20032;-34
2023/09/17 03:10:10;;;;;;;4.70;4.00;;;13.90;99.90;;;;;;5046959;28;20115;-35
2023/09/17 03:12:36;;;;;;;5.40;4.20;;;14.00;99.90;;;;;;5042789;28;20183;-33
2023/09/17 03:15:02;;;;;;;4.63;3.92;;;13.90;99.90;;;;;;5044327;28;20133;-33
2023/09/17 03:17:27;;;;;;;4.63;4.00;;;14.00;99.90;;;;;;5043501;28;21049;-36
2023/09/17 03:19:53;;;;;;;4.38;3.80;;;14.00;99.90;;;;;;5046265;28;20386;-35
2023/09/17 03:22:18;;;;;;;4.75;3.95;;;14.00;99.90;;;;;;5046726;28;20033;-33
2023/09/17 03:24:44;;;;;;;4.40;4.00;;;14.00;99.90;;;;;;5046469;28;20033;-30
2023/09/17 03:27:10;;;;;;;6.13;4.30;;;13.90;99.90;;;;;;5045906;28;20040;-30
2023/09/17 03:29:35;;;;;;;4.45;3.85;;;13.90;99.90;;;;;;5042031;28;20025;-30
2023/09/17 03:32:01;;;;;;;5.10;4.57;;;13.90;99.90;;;;;;5044364;28;20033;-32
2023/09/17 03:34:27;;;;;;;6.07;4.50;;;13.90;99.90;;;;;;5046820;28;20024;-32
2023/09/17 03:36:52;;;;;;;4.03;3.63;;;13.90;99.90;;;;;;5040805;28;20475;-31
2023/09/17 03:39:18;;;;;;;4.25;3.85;;;13.90;99.90;;;;;;5047467;28;20499;-34
2023/09/17 03:41:44;;;;;;;76.57;8.00;;;14.00;99.90;;;;;;5042960;28;20442;-31
2023/09/17 03:44:09;;;;;;;3.65;3.35;;;13.80;99.90;;;;;;5040433;28;20052;-32
2023/09/17 03:46:37;;;;;;;3.58;3.28;;;13.40;99.90;;;;;;5046073;28;20136;-31
2023/09/17 03:49:03;;;;;;;4.00;3.58;;;13.40;99.90;;;;;;5047162;28;20083;-30
2023/09/17 03:51:29;;;;;;;3.45;3.15;;;13.40;99.90;;;;;;5041453;28;20041;-31
2023/09/17 03:53:55;;;;;;;3.22;2.97;;;13.50;99.90;;;;;;5045797;28;20026;-37
2023/09/17 03:56:21;;;;;;;3.60;3.30;;;13.50;99.90;;;;;;5047717;28;20032;-39
2023/09/17 03:58:48;;;;;;;3.78;3.35;;;13.60;99.90;;;;;;5049594;28;20033;-39
2023/09/17 04:01:14;;;;;;;3.63;3.33;;;13.70;99.90;;;;;;5044948;28;20040;-40
2023/09/17 04:03:39;;;;;;;4.93;4.20;;;13.70;99.90;;;;;;5053210;28;20409;-38
2023/09/17 04:06:06;;;;;;;4.22;3.83;;;13.70;99.90;;;;;;5051012;28;20554;-40
2023/09/17 04:08:31;;;;;;;4.35;3.75;;;13.70;99.90;;;;;;5049748;28;20032;-40
2023/09/17 04:10:57;;;;;;;6.00;4.60;;;13.70;99.90;;;;;;5050310;28;20037;-38
2023/09/17 04:13:23;;;;;;;4.43;4.03;;;13.70;99.90;;;;;;5051799;28;20500;-37
2023/09/17 04:15:49;;;;;;;7.28;4.55;;;13.70;99.90;;;;;;5046847;28;20410;-39
2023/09/17 04:18:15;;;;;;;6.90;4.75;;;13.80;99.90;;;;;;5043859;28;20104;-36
2023/09/17 04:20:40;;;;;;;6.13;5.03;;;13.80;99.90;;;;;;5049724;28;20112;-40
2023/09/17 04:23:06;;;;;;;6.88;5.13;;;13.90;99.90;;;;;;5050692;28;20036;-38
2023/09/17 04:25:32;;;;;;;6.57;4.90;;;13.90;99.90;;;;;;5047746;28;20040;-37
2023/09/17 04:27:58;;;;;;;6.18;4.30;;;13.80;99.90;;;;;;5049915;28;20118;-36
2023/09/17 04:30:24;;;;;;;3.72;3.42;;;13.80;99.90;;;;;;5045975;28;20028;-38
2023/09/17 04:32:51;;;;;;;3.40;3.10;;;13.80;99.90;;;;;;5043462;28;20029;-40
2023/09/17 04:35:17;;;;;;;3.45;3.13;;;13.60;99.90;;;;;;5050226;28;20033;-41
2023/09/17 04:37:43;;;;;;;4.28;3.60;;;13.70;99.90;;;;;;5047115;28;20032;-36
2023/09/17 04:40:12;;;;;;;4.15;3.75;;;13.40;99.90;;;;;;5046361;28;22750;-39
2023/09/17 04:42:40;;;;;;;5.50;3.40;;;13.40;99.90;;;;;;5050244;28;20068;-41
2023/09/17 04:45:06;;;;;;;4.03;3.72;;;13.40;99.90;;;;;;5046616;28;20205;-35
2023/09/17 04:47:36;;;;;;;3.63;3.33;;;13.50;99.90;;;;;;5052282;28;20029;-39
2023/09/17 04:50:04;;;;;;;3.33;3.03;;;13.50;99.90;;;;;;5047920;28;20036;-42
2023/09/17 04:52:30;;;;;;;3.83;3.40;;;13.50;99.90;;;;;;5051940;28;20470;-34
2023/09/17 04:54:55;;;;;;;3.78;3.38;;;13.60;99.90;;;;;;5046744;28;20028;-41
2023/09/17 04:57:21;;;;;;;4.28;3.88;;;13.60;99.90;;;;;;5044405;28;20130;-38
2023/09/17 04:59:46;;;;;;;4.13;3.63;;;13.60;99.90;;;;;;5047172;28;20029;-42
2023/09/17 05:02:14;;;;;;;3.92;3.53;;;13.60;99.90;;;;;;5047199;28;20047;-41
2023/09/17 05:04:40;;;;;;;6.05;4.25;;;13.60;99.90;;;;;;5046555;28;20032;-38
2023/09/17 05:07:05;;;;;;;5.82;4.38;;;13.70;99.90;;;;;;5047996;28;20021;-36
2023/09/17 05:09:32;;;;;;;4.75;3.88;;;13.70;99.90;;;;;;5044266;28;20059;-37
2023/09/17 05:11:58;;;;;;;4.10;3.70;;;13.70;99.90;;;;;;5045160;28;20017;-38
2023/09/17 05:14:23;;;;;;;6.18;4.45;;;13.70;99.90;;;;;;5047450;28;20029;-38
2023/09/17 05:16:49;;;;;;;4.90;4.05;;;13.70;99.90;;;;;;5044862;28;20531;-40
2023/09/17 05:19:14;;;;;;;6.13;4.60;;;13.50;99.90;;;;;;5043475;28;20060;-39
2023/09/17 05:21:40;;;;;;;4.45;3.85;;;13.50;99.90;;;;;;5046026;28;20089;-37
2023/09/17 05:24:06;;;;;;;5.18;3.50;;;13.60;99.90;;;;;;5048208;28;20098;-36
2023/09/17 05:26:31;;;;;;;4.90;4.00;;;13.50;99.90;;;;;;5047988;28;20049;-39
2023/09/17 05:28:57;;;;;;;4.72;3.70;;;13.50;99.90;;;;;;5046381;28;20534;-35
2023/09/17 05:31:23;;;;;;;5.03;4.53;;;13.50;99.90;;;;;;5047633;28;20391;-38
2023/09/17 05:33:48;;;;;;;6.55;4.30;;;13.60;99.90;;;;;;5043790;28;20508;-39
2023/09/17 05:36:14;;;;;;;6.22;4.38;;;13.50;99.90;;;;;;5048928;28;20444;-38
2023/09/17 05:38:39;;;;;;;4.97;4.47;;;13.60;99.90;;;;;;5045577;28;20405;-40
2023/09/17 05:41:05;;;;;;;6.82;5.13;;;13.70;99.90;;;;;;5045548;28;20032;-37
2023/09/17 05:43:31;;;;;;;7.10;4.80;;;13.80;99.90;;;;;;5048399;28;20040;-39
2023/09/17 05:45:56;;;;;;;6.65;4.60;;;13.80;99.90;;;;;;5042728;28;20122;-37
2023/09/17 05:48:23;;;;;;;6.45;5.10;;;13.90;99.90;;;;;;5047367;28;20025;-40
2023/09/17 05:50:50;;;;;;;6.55;5.00;;;13.90;99.90;;;;;;5046978;28;20028;-36
2023/09/17 05:53:16;;;;;;;6.20;5.43;;;14.00;99.90;;;;;;5060941;28;20108;-35
2023/09/17 05:55:42;;;;;;;6.38;5.28;;;14.00;99.90;;;;;;5044096;28;20159;-39
2023/09/17 05:58:07;;;;;;;6.57;4.88;;;14.10;99.90;;;;;;5047130;28;20024;-37
2023/09/17 06:00:33;;;;;;;5.72;5.13;;;14.10;99.90;;;;;;5036099;28;21820;-34
2023/09/17 06:02:59;;;;;;;5.90;4.75;;;14.10;99.90;;;;;;5044692;28;20736;-37
2023/09/17 06:05:24;;;;;;;7.43;5.40;;;14.10;99.90;;;;;;5043355;28;20039;-39
2023/09/17 06:07:50;;;;;;;6.47;4.80;;;14.20;99.90;;;;;;5044133;28;20048;-40
2023/09/17 06:10:15;;;;;;;6.20;5.18;;;14.30;99.90;;;;;;5047435;28;20028;-39
2023/09/17 06:12:42;;;;;;;6.63;5.15;;;14.30;99.90;;;;;;5045456;28;20381;-39
2023/09/17 06:15:08;;;;;;;7.30;5.55;;;14.40;99.90;;;;;;5046673;28;20040;-33
2023/09/17 06:17:33;;;;;;;7.75;5.70;;;14.40;99.90;;;;;;5044376;28;20028;-32
2023/09/17 06:19:59;;;;;;;7.97;5.10;;;14.30;99.90;;;;;;5044040;28;20067;-33
2023/09/17 06:22:25;;;;;;;6.60;5.90;;;14.40;99.90;;;;;;5041516;28;20658;-33
2023/09/17 06:24:51;;;;;;;7.68;5.70;;;14.50;99.90;;;;;;5048025;28;20037;-36
2023/09/17 06:27:17;;;;;;;7.32;5.68;;;14.70;99.90;;;;;;5044200;28;20030;-37
2023/09/17 06:29:42;;;;;;;6.55;5.50;;;14.80;99.90;;;;;;5044439;28;20033;-39
2023/09/17 06:32:08;;;;;;;8.60;5.85;;;14.90;99.90;;;;;;5041660;28;20031;-33
2023/09/17 06:34:35;;;;;;;8.25;6.40;;;15.00;99.90;;;;;;5046627;28;20032;-32
2023/09/17 06:37:01;;;;;;;8.18;6.43;;;15.20;99.90;;;;;;5046095;28;20039;-32
2023/09/17 06:39:27;;;;;;;8.77;6.38;;;15.30;99.90;;;;;;5041401;28;20037;-33
2023/09/17 06:41:52;;;;;;;8.48;5.97;;;15.30;99.90;;;;;;5044493;28;20067;-35
2023/09/17 06:44:18;;;;;;;9.13;6.50;;;15.40;99.90;;;;;;5045931;28;20053;-34
2023/09/17 06:46:44;;;;;;;6.28;5.68;;;15.50;99.90;;;;;;5045090;28;20037;-33
2023/09/17 06:49:10;;;;;;;7.78;6.28;;;15.50;99.90;;;;;;5049697;28;20040;-35
2023/09/17 06:51:36;;;;;;;8.32;6.13;;;15.60;99.90;;;;;;5042949;28;20064;-32
2023/09/17 06:54:03;;;;;;;10.70;6.50;;;15.60;99.90;;;;;;5042686;28;20083;-32
2023/09/17 06:56:29;;;;;;;9.73;7.03;;;15.60;99.90;;;;;;5044312;28;20036;-33
2023/09/17 06:58:55;;;;;;;6.97;6.25;;;15.70;99.90;;;;;;5040824;28;20029;-34
2023/09/17 07:01:20;;;;;;;9.50;6.95;;;15.70;99.90;;;;;;5043345;28;20041;-33
2023/09/17 07:03:47;;;;;;;8.45;7.05;;;15.70;99.90;;;;;;5045887;28;20032;-32
2023/09/17 07:06:12;;;;;;;7.93;6.85;;;15.80;99.90;;;;;;5047844;28;20029;-34
2023/09/17 07:08:38;;;;;;;9.68;7.70;;;15.80;99.90;;;;;;5049086;28;20021;-36
2023/09/17 07:11:04;;;;;;;8.48;6.82;;;16.00;99.90;;;;;;5039909;28;20036;-36
2023/09/17 07:13:29;;;;;;;9.73;6.93;;;16.00;99.90;;;;;;5045908;28;20037;-36
2023/09/17 07:15:55;;;;;;;9.48;7.60;;;16.20;99.90;;;;;;5044276;28;20032;-33
2023/09/17 07:18:21;;;;;;;10.43;7.63;;;16.20;99.90;;;;;;5047921;28;20477;-37
2023/09/17 07:20:49;;;;;;;9.38;7.15;;;16.30;99.90;;;;;;5044071;28;20096;-33
2023/09/17 07:23:15;;;;;;;8.07;6.60;;;16.30;99.90;;;;;;5042233;28;20033;-32
2023/09/17 07:25:41;;;;;;;7.78;6.18;;;16.40;99.90;;;;;;5042386;28;20063;-34
2023/09/17 07:28:10;;;;;;;9.00;6.45;;;16.50;99.90;;;;;;5047081;28;20134;-35
2023/09/17 07:30:35;;;;;;;7.13;6.22;;;16.50;99.90;;;;;;5042964;28;20029;-33
2023/09/17 07:33:02;;;;;;;7.07;6.32;;;16.50;99.90;;;;;;5045253;28;20029;-32
2023/09/17 07:35:29;;;;;;;9.13;6.32;;;16.60;99.90;;;;;;5041654;28;20044;-32
2023/09/17 07:37:54;;;;;;;7.80;6.53;;;16.70;99.90;;;;;;5050922;28;20040;-33
2023/09/17 07:40:20;;;;;;;9.88;6.70;;;17.00;99.90;;;;;;5044806;28;20025;-32
2023/09/17 07:42:46;;;;;;;7.38;6.18;;;17.20;99.90;;;;;;5040703;28;20029;-34
2023/09/17 07:45:13;;;;;;;9.75;5.90;;;17.40;99.90;;;;;;5038725;28;20409;-33
2023/09/17 07:47:39;;;;;;;7.20;6.47;;;17.60;99.90;;;;;;5044177;28;20041;-33
2023/09/17 07:50:05;;;;;;;8.63;6.10;;;17.80;99.90;;;;;;5035673;28;20480;-35
2023/09/17 07:52:32;;;;;;;9.13;5.82;;;18.00;99.90;;;;;;5046235;28;20064;-33
2023/09/17 07:54:57;;;;;;;6.32;5.43;;;18.30;99.90;;;;;;5048562;28;20021;-35
2023/09/17 07:57:23;;;;;;;7.35;6.03;;;18.40;99.90;;;;;;5048465;28;20033;-32
2023/09/17 07:59:49;;;;;;;7.97;5.93;;;18.60;99.90;;;;;;5040581;28;20039;-33
2023/09/17 08:02:15;;;;;;;8.80;6.18;;;18.90;99.90;;;;;;5044092;28;20178;-36
2023/09/17 08:04:40;;;;;;;6.50;5.32;;;19.10;99.90;;;;;;5050700;28;20025;-30
2023/09/17 08:07:06;;;;;;;8.00;5.78;;;19.20;99.90;;;;;;5046935;28;20090;-34
2023/09/17 08:09:31;;;;;;;7.57;6.10;;;19.30;99.90;;;;;;5045640;28;20093;-29
2023/09/17 08:11:58;;;;;;;8.35;6.03;;;19.50;99.90;;;;;;5045070;28;20165;-30
2023/09/17 08:14:25;;;;;;;6.75;5.57;;;19.70;99.90;;;;;;5044513;28;20025;-29
2023/09/17 08:16:51;;;;;;;6.65;5.03;;;20.00;99.90;;;;;;5047642;28;20147;-30
2023/09/17 08:19:17;;;;;;;7.35;4.85;;;20.30;99.90;;;;;;5051762;28;20174;-34
2023/09/17 08:21:43;;;;;;;5.95;5.10;;;20.40;99.90;;;;;;5047940;28;20025;-30
2023/09/17 08:24:10;;;;;;;6.53;4.95;;;20.40;99.90;;;;;;5049990;28;20033;-30
2023/09/17 08:26:36;;;;;;;6.80;5.28;;;20.60;99.90;;;;;;5045902;28;20028;-31
2023/09/17 08:29:01;;;;;;;8.00;5.22;;;20.70;99.90;;;;;;5046552;28;20044;-29
2023/09/17 08:31:28;;;;;;;7.18;5.50;;;20.70;99.90;;;;;;5045500;28;20095;-30
2023/09/17 08:33:54;;;;;;;6.63;5.15;;;20.70;99.90;;;;;;5050102;28;20402;-38
2023/09/17 08:36:23;;;;;;;7.03;4.97;;;20.70;99.90;;;;;;5041769;28;20025;-37
2023/09/17 08:38:49;;;;;;;6.63;4.88;;;20.70;99.90;;;;;;5041236;28;20032;-39
2023/09/17 08:41:19;;;;;;;5.63;4.95;;;21.00;99.90;;;;;;5041678;28;20067;-38
2023/09/17 08:43:49;;;;;;;5.93;4.88;;;21.20;99.90;;;;;;5044757;28;20155;-39
2023/09/17 08:46:16;;;;;;;7.40;4.90;;;21.30;99.90;;;;;;5044492;28;20842;-35
2023/09/17 08:48:43;;;;;;;5.68;4.72;;;21.30;99.90;;;;;;5043582;28;20037;-39
2023/09/17 08:51:11;;;;;;;5.75;4.75;;;21.30;99.90;;;;;;5051594;28;20398;-39
2023/09/17 08:53:41;;;;;;;6.93;5.25;;;21.30;99.90;;;;;;5046144;28;20620;-39
2023/09/17 08:56:11;;;;;;;5.82;4.65;;;21.40;99.90;;;;;;5044867;28;20025;-39
2023/09/17 08:58:40;;;;;;;6.35;4.35;;;21.40;99.90;;;;;;5044947;28;20033;-37
2023/09/17 09:01:10;;;;;;;5.50;4.60;;;21.40;99.90;;;;;;5040594;28;20449;-34
2023/09/17 09:03:36;;;;;;;5.35;4.38;;;21.50;99.90;;;;;;5045179;28;20102;-39
2023/09/17 09:06:03;;;;;;;4.95;4.45;;;21.50;99.90;;;;;;5047971;28;20025;-36
2023/09/17 09:08:31;;;;;;;6.47;4.95;;;21.60;99.90;;;;;;5048081;28;20040;-38
2023/09/17 09:10:57;;;;;;;;;;;21.90;99.90;;;;;;5050627;28;20119;-37
2023/09/17 09:13:24;;;;;;;5.57;4.60;;;22.10;99.90;;;;;;5047091;28;19912;-30
2023/09/17 09:15:50;;;;;;;4.72;4.22;;;22.20;99.90;;;;;;5046297;28;20046;-29
2023/09/17 09:18:16;;;;;;;7.15;4.78;;;22.30;99.90;;;;;;5042093;28;20028;-31
2023/09/17 09:20:42;;;;;;;5.90;4.32;;;22.40;99.90;;;;;;5046063;28;20033;-30
2023/09/17 09:23:07;;;;;;;5.40;4.68;;;22.50;99.90;;;;;;5046959;28;20063;-30
2023/09/17 09:25:34;;;;;;;5.55;4.10;;;22.40;99.90;;;;;;5049637;28;20493;-30
2023/09/17 09:28:03;;;;;;;5.18;4.68;;;22.50;99.90;;;;;;5048455;28;20037;-30
2023/09/17 09:30:29;;;;;;;5.80;4.28;;;22.70;99.90;;;;;;5048899;28;20055;-29
2023/09/17 09:32:55;;;;;;;6.55;4.90;;;22.80;99.90;;;;;;5049143;28;20064;-30
2023/09/17 09:35:22;;;;;;;5.50;4.50;;;22.90;99.90;;;;;;5045211;28;20446;-29
2023/09/17 09:37:50;;;;;;;5.78;4.03;;;23.10;99.90;;;;;;5049417;28;20112;-30
2023/09/17 09:40:17;;;;;;;5.72;4.35;;;23.20;99.90;;;;;;5047993;28;20052;-29
2023/09/17 09:42:43;;;;;;;4.68;3.95;;;23.10;99.90;;;;;;5052226;28;20029;-30
2023/09/17 09:45:15;;;;;;;6.78;5.00;;;23.20;99.90;;;;;;5046695;28;20510;-31
2023/09/17 09:47:48;;;;;;;5.47;4.75;;;23.00;99.90;;;;;;5050292;28;20440;-30
2023/09/17 09:50:43;;;;;;;6.10;4.35;;;23.10;99.90;;;;;;5049097;28;20044;-29
2023/09/17 09:53:10;;;;;;;6.68;4.78;;;23.00;99.90;;;;;;5037917;28;20536;-29
2023/09/17 09:55:35;;;;;;;5.15;4.47;;;23.00;99.90;;;;;;5044625;28;20112;-29
2023/09/17 09:58:02;;;;;;;5.20;4.45;;;23.00;99.90;;;;;;5048722;28;20029;-30
2023/09/17 10:00:29;;;;;;;5.30;4.47;;;22.90;99.90;;;;;;5050376;28;20025;-29
2023/09/17 10:02:55;;;;;;;4.82;4.32;;;23.10;99.90;;;;;;5047726;28;20029;-31
2023/09/17 10:05:39;;;;;;;6.55;4.60;;;23.30;99.90;;;;;;5045164;28;20072;-30
2023/09/17 10:08:09;;;;;;;5.32;4.80;;;23.60;99.90;;;;;;5046515;28;20029;-36
2023/09/17 10:10:38;;;;;;;5.38;4.40;;;23.60;99.90;;;;;;5049566;28;20769;-29
2023/09/17 10:13:08;;;;;;;5.85;4.47;;;23.50;99.90;;;;;;5049545;28;20025;-30
2023/09/17 10:15:35;;;;;;;6.90;4.53;;;23.50;99.90;;;;;;5047456;28;20483;-31
2023/09/17 10:18:01;;;;;;;5.03;4.53;;;23.40;99.90;;;;;;5046642;28;20051;-29
2023/09/17 10:20:28;;;;;;;5.50;4.82;;;23.30;99.90;;;;;;5050263;28;20114;-29
2023/09/17 10:22:57;;;;;;;5.72;5.05;;;23.30;99.90;;;;;;5046991;28;20029;-30
2023/09/17 10:25:23;;;;;;;5.15;4.63;;;23.30;99.90;;;;;;5050468;28;20031;-38
2023/09/17 10:27:51;;;;;;;4.97;3.93;;;23.20;99.90;;;;;;5047803;28;20029;-39
2023/09/17 10:30:18;;;;;;;4.82;4.38;;;23.40;99.90;;;;;;5045648;28;20029;-38
2023/09/17 10:32:47;;;;;;;4.63;4.15;;;23.70;99.90;;;;;;5049387;28;20029;-37
2023/09/17 10:35:14;;;;;;;4.55;4.07;;;23.70;99.90;;;;;;5047432;28;20025;-39
2023/09/17 10:37:40;;;;;;;5.00;4.40;;;24.00;99.90;;;;;;5051167;28;20035;-39
2023/09/17 10:40:12;;;;;;;4.40;3.90;;;24.00;99.90;;;;;;5043092;28;20026;-39
2023/09/17 10:42:40;;;;;;;3.78;3.42;;;24.30;99.90;;;;;;5049269;28;20532;-40
2023/09/17 10:45:08;;;;;;;4.28;3.58;;;24.50;99.90;;;;;;5046746;28;20057;-34
2023/09/17 10:47:37;;;;;;;4.32;3.90;;;24.80;99.90;;;;;;5046211;28;20040;-39
2023/09/17 10:50:04;;;;;;;3.85;3.38;;;25.00;99.90;;;;;;5046954;28;20037;-39
2023/09/17 10:52:32;;;;;;;5.43;3.78;;;24.90;99.90;;;;;;5050125;28;20017;-40
2023/09/17 10:54:59;;;;;;;4.43;3.60;;;25.00;99.90;;;;;;5048536;28;20486;-32
2023/09/17 10:57:43;;;;;;;4.00;3.60;;;24.90;99.90;;;;;;5044256;28;20063;-31
2023/09/17 11:00:17;;;;;;;4.60;3.58;;;25.00;99.90;;;;;;5046863;28;20646;-32
2023/09/17 11:02:55;;;;;;;5.18;4.05;;;25.10;99.90;;;;;;5046894;28;20040;-32
2023/09/17 11:05:25;;;;;;;4.55;3.45;;;25.20;99.90;;;;;;5042988;28;20057;-33
2023/09/17 11:07:55;;;;;;;3.92;3.53;;;25.10;99.90;;;;;;5048416;28;20104;-33
2023/09/17 11:10:21;;;;;;;3.55;3.20;;;25.50;99.90;;;;;;5050719;28;20064;-37
2023/09/17 11:12:47;;;;;;;3.80;3.50;;;25.80;99.90;;;;;;5047830;28;20048;-35
2023/09/17 11:15:13;;;;;;;3.70;3.40;;;25.90;99.90;;;;;;5052374;28;20036;-35
2023/09/17 11:17:40;;;;;;;4.13;3.78;;;25.60;99.90;;;;;;5052362;28;20374;-32
2023/09/17 11:20:12;;;;;;;4.50;3.60;;;25.40;99.90;;;;;;5045680;28;20025;-34
2023/09/17 11:22:39;;;;;;;4.07;3.55;;;25.40;99.90;;;;;;5049683;28;20029;-32
2023/09/17 11:25:08;;;;;;;3.78;3.17;;;25.20;99.90;;;;;;5051081;28;20024;-37
2023/09/17 11:27:50;;;;;;;3.50;3.17;;;24.90;99.90;;;;;;5053143;28;20032;-33
2023/09/17 11:30:22;;;;;;;3.97;3.40;;;25.00;99.90;;;;;;5046635;28;20719;-33
2023/09/17 11:32:53;;;;;;;3.40;3.10;;;25.20;99.90;;;;;;5050896;28;20064;-32
2023/09/17 11:35:23;;;;;;;4.60;3.65;;;25.30;99.90;;;;;;5047152;28;20040;-40
2023/09/17 11:37:50;;;;;;;3.58;3.20;;;25.50;99.90;;;;;;5050389;28;20190;-40
2023/09/17 11:40:18;;;;;;;3.15;2.90;;;25.30;99.90;;;;;;5049671;28;20116;-39
2023/09/17 11:42:45;;;;;;;4.75;3.35;;;25.30;99.90;;;;;;5049787;28;20032;-39
2023/09/17 11:45:11;;;;;;;3.00;2.80;;;25.30;99.90;;;;;;5048854;28;20268;-38
2023/09/17 11:47:38;;;;;;;4.35;3.30;;;25.50;99.90;;;;;;5048377;28;20410;-39
2023/09/17 11:50:07;;;;;;;3.33;2.97;;;25.80;99.90;;;;;;5046442;28;20170;-39
2023/09/17 11:52:33;;;;;;;3.38;3.08;;;26.00;99.90;;;;;;5051144;28;20410;-40
2023/09/17 11:55:03;;;;;;;3.30;3.00;;;26.20;99.90;;;;;;5052376;28;20029;-39
2023/09/17 11:57:29;;;;;;;3.92;3.13;;;26.30;99.90;;;;;;5049340;28;20039;-39
2023/09/17 11:59:55;;;;;;;3.40;3.10;;;26.30;99.90;;;;;;5049200;28;20033;-37
2023/09/17 12:02:22;;;;;;;3.67;2.80;;;26.20;99.90;;;;;;5049153;28;20045;-39
2023/09/17 12:04:49;;;;;;;4.50;2.88;;;25.80;99.90;;;;;;5052786;28;20174;-33
2023/09/17 12:07:15;;;;;;;4.38;2.92;;;25.70;99.90;;;;;;5049341;28;20036;-32
2023/09/17 12:12:17;;;;;;;3.22;2.90;;;25.50;99.90;;;;;;5045878;28;20361;-32
2023/09/17 12:14:42;;;;;;;3.10;2.80;;;25.40;99.90;;;;;;5050999;28;20021;-32
2023/09/17 12:17:08;;;;;;;3.15;2.65;;;25.60;99.90;;;;;;5047903;28;20028;-31
2023/09/17 12:19:34;;;;;;;3.78;3.10;;;25.60;99.90;;;;;;5049111;28;20029;-33
2023/09/17 12:22:00;;;;;;;3.75;2.58;;;25.60;99.90;;;;;;5051244;28;20083;-34
2023/09/17 12:24:29;;;;;;;3.88;2.70;;;25.70;99.90;;;;;;5053360;28;20033;-32
2023/09/17 12:29:38;;;;;;;3.53;2.88;;;25.90;99.90;;;;;;5049275;28;20503;-36
2023/09/17 12:32:04;;;;;;;3.60;2.83;;;26.00;99.90;;;;;;5048346;28;20116;-33
2023/09/17 12:34:33;;;;;;;3.47;2.88;;;26.20;99.90;;;;;;5054961;28;20073;-32
2023/09/17 12:36:58;;;;;;;3.42;2.67;;;26.30;99.90;;;;;;5047251;28;20493;-32
2023/09/17 12:39:24;;;;;;;3.28;2.97;;;26.50;99.90;;;;;;5062571;28;20040;-32
2023/09/17 12:41:49;;;;;;;4.88;2.97;;;26.50;99.90;;;;;;5047339;28;20029;-33
2023/09/17 12:44:15;;;;;;;2.95;2.67;;;26.20;99.90;;;;;;5050927;28;20067;-33
2023/09/17 12:46:41;;;;;;;4.63;2.60;;;26.00;99.90;;;;;;5044365;28;20037;-32
2023/09/17 12:49:07;;;;;;;2.95;2.67;;;26.10;99.90;;;;;;5050354;28;20041;-33
2023/09/17 12:51:35;;;;;;;2.70;2.50;;;26.30;99.90;;;;;;5051884;28;20032;-32